sensor_id;sensor_type;location;lat;lon;timestamp;pressure;altitude;pressure_sealevel;temperature;humidity
15558;BME280;7880;50.110;9.372;2023-05-22T00:04:06;15.32305395953008;;;14.875;100.0
15558;BME280;7880;50.110;9.372;2023-05-22T00:09:15;15.277670759358443;;;14.937;100.0
15558;BME280;7880;50.110;9.372;2023-05-22T00:14:18;15.32305395953008;;;14.937;100.0
15558;BME280;7880;50.110;9.372;2023-05-22T00:19:24;15.252457880560542;;;14.875;100.0
15558;BME280;7880;50.110;9.372;2023-05-22T00:24:27;15.161691577133023;;;14.812;100.0
15558;BME280;7880;50.110;9.372;2023-05-22T00:29:42;15.161691577133023;;;14.812;100.0
15558;BME280;7880;50.110;9.372;2023-05-22T00:34:47;15.040669985912974;;;14.687;100.0
15558;BME280;7880;50.110;9.372;2023-05-22T00:39:44;14.874265571706928;;;14.625;100.0
15558;BME280;7880;50.110;9.372;2023-05-22T00:44:49;14.970074135117466;;;14.625;100.0
15558;BME280;7880;50.110;9.372;2023-05-22T00:49:54;14.813754954212346;;;14.5;100.0
15558;BME280;7880;50.110;9.372;2023-05-22T00:55:00;14.657436052995035;;;14.375;100.0
15558;BME280;7880;50.110;9.372;2023-05-22T01:00:09;14.566670367732877;;;14.312;100.0
15558;BME280;7880;50.110;9.372;2023-05-22T01:05:12;14.697776387823978;;;14.312;100.0
15558;BME280;7880;50.110;9.372;2023-05-22T01:10:17;14.682648760080337;;;14.25;100.0
15558;BME280;7880;50.110;9.372;2023-05-22T01:15:28;14.647350972198183;;;14.25;100.0
15558;BME280;7880;50.110;9.372;2023-05-22T01:20:30;14.591883048624732;;;14.25;100.0
15558;BME280;7880;50.110;9.372;2023-05-22T01:26:02;14.475904776767129;;;14.187;100.0
15558;BME280;7880;50.110;9.372;2023-05-22T01:30:54;14.485989837773378;;;14.125;100.0
15558;BME280;7880;50.110;9.372;2023-05-22T01:35:59;14.43556454438367;;;14.062;100.0
15558;BME280;7880;50.110;9.372;2023-05-22T01:41:00;14.274203801114345;;;13.937;100.0
15558;BME280;7880;50.110;9.372;2023-05-22T01:46:07;14.339756567124278;;;13.937;100.0
15558;BME280;7880;50.110;9.372;2023-05-22T01:51:13;14.304458917776355;;;14.0;100.0
15558;BME280;7880;50.110;9.372;2023-05-22T01:56:24;14.274203801114345;;;14.0;100.0
15558;BME280;7880;50.110;9.372;2023-05-22T02:01:21;14.274203801114345;;;13.937;100.0
15558;BME280;7880;50.110;9.372;2023-05-22T02:06:27;14.1430984166509;;;13.875;100.0
15558;BME280;7880;50.110;9.372;2023-05-22T02:11:32;14.01199322892935;;;13.75;100.0
15558;BME280;7880;50.110;9.372;2023-05-22T02:16:37;13.961568209115649;;;13.687;100.0
15558;BME280;7880;50.110;9.372;2023-05-22T02:21:43;14.04729076011572;;;13.75;100.0
15558;BME280;7880;50.110;9.372;2023-05-22T02:26:49;13.921228214219445;;;13.625;100.0
15558;BME280;7880;50.110;9.372;2023-05-22T02:31:55;13.865760751650669;;;13.562;100.0
15558;BME280;7880;50.110;9.372;2023-05-22T02:37:03;13.74474095555488;;;13.437;100.0
15558;BME280;7880;50.110;9.372;2023-05-22T02:42:14;13.916185716167092;;;13.562;100.0
15558;BME280;7880;50.110;9.372;2023-05-22T02:47:17;13.623721327097154;;;13.375;100.0
15558;BME280;7880;50.110;9.372;2023-05-22T02:52:24;13.457319611689309;;;13.25;100.0
15558;BME280;7880;50.110;9.372;2023-05-22T02:57:24;13.558169098343933;;;13.187;100.0
15558;BME280;7880;50.110;9.372;2023-05-22T03:02:32;13.633806289732457;;;13.25;100.0
15558;BME280;7880;50.110;9.372;2023-05-22T03:07:34;13.507744340464706;;;13.187;100.0
15558;BME280;7880;50.110;9.372;2023-05-22T03:12:40;13.42706478839391;;;13.062;100.0
15558;BME280;7880;50.110;9.372;2023-05-22T03:17:47;13.432107258215547;;;13.125;100.0
15558;BME280;7880;50.110;9.372;2023-05-22T03:22:49;13.497659392381319;;;13.125;100.0
15558;BME280;7880;50.110;9.372;2023-05-22T03:27:54;13.316130525950575;;;13.125;100.0
15558;BME280;7880;50.110;9.372;2023-05-22T03:33:00;13.447234669426688;;;13.125;100.0
15558;BME280;7880;50.110;9.372;2023-05-22T03:38:14;13.497659392381319;;;13.187;100.0
15558;BME280;7880;50.110;9.372;2023-05-22T03:43:12;13.386725040298188;;;13.062;100.0
15558;BME280;7880;50.110;9.372;2023-05-22T03:48:25;13.346385310828918;;;13.0;100.0
15558;BME280;7880;50.110;9.372;2023-05-22T03:53:23;13.406894912017743;;;13.125;100.0
15558;BME280;7880;50.110;9.372;2023-05-22T03:58:33;13.416979849623749;;;13.062;100.0
15558;BME280;7880;50.110;9.372;2023-05-22T04:03:35;13.457319611689309;;;13.187;100.0
15558;BME280;7880;50.110;9.372;2023-05-22T04:08:42;13.65901870141388;;;13.312;100.0
15558;BME280;7880;50.110;9.372;2023-05-22T04:13:44;13.664061184623279;;;13.375;100.0
15558;BME280;7880;50.110;9.372;2023-05-22T04:18:48;13.71448603272438;;;13.437;100.0
15558;BME280;7880;50.110;9.372;2023-05-22T04:23:54;13.739698467688868;;;13.5;100.0
15558;BME280;7880;50.110;9.372;2023-05-22T04:29:00;13.951483208645367;;;13.625;100.0
15558;BME280;7880;50.110;9.372;2023-05-22T04:34:10;13.931313211197267;;;13.625;100.0
15558;BME280;7880;50.110;9.372;2023-05-22T04:39:15;14.062418277846882;;;13.75;100.0
15558;BME280;7880;50.110;9.372;2023-05-22T04:44:22;14.067460784339346;;;13.875;100.0
15558;BME280;7880;50.110;9.372;2023-05-22T04:49:24;14.203608569648349;;;14.0;100.0
15558;BME280;7880;50.110;9.372;2023-05-22T04:54:29;14.344799089623848;;;14.062;100.0
15558;BME280;7880;50.110;9.372;2023-05-22T04:58:08;14.491032368713059;;;14.25;100.0
15558;BME280;7880;50.110;9.372;2023-05-22T05:03:14;14.561627832427622;;;14.375;100.0
15558;BME280;7880;50.110;9.372;2023-05-22T05:08:19;14.728031651169294;;;14.562;100.0
15558;BME280;7880;50.110;9.372;2023-05-22T05:13:25;14.985201812628656;;;14.75;100.0
15558;BME280;7880;50.110;9.372;2023-05-22T05:18:30;15.262543031206587;;;15.062;100.0
15558;BME280;7880;50.110;9.372;2023-05-22T05:23:38;15.41382043059566;;;15.25;100.0
15558;BME280;7880;50.110;9.372;2023-05-22T05:29:05;15.62056663336698;;;15.5;100.0
15558;BME280;7880;50.110;9.372;2023-05-22T05:34:06;15.827313325373689;;;15.687;100.0
15558;BME280;7880;50.110;9.372;2023-05-22T05:39:12;15.812185502052307;;;15.75;100.0
15558;BME280;7880;50.110;9.372;2023-05-22T05:44:17;15.938250776432687;;;15.875;100.0
15558;BME280;7880;50.110;9.372;2023-05-22T05:49:25;16.059273610968376;;;15.937;100.0
15558;BME280;7880;50.110;9.372;2023-05-22T05:54:28;16.276106608752162;;;16.187;100.0
15558;BME280;7880;50.110;9.372;2023-05-22T05:59:37;16.45259898095974;;;16.375;100.0
15558;BME280;7880;50.110;9.372;2023-05-22T06:04:49;16.61900640130043;;;16.5;100.0
15558;BME280;7880;50.110;9.372;2023-05-22T06:09:43;16.73498751805746;;;16.625;100.0
15558;BME280;7880;50.110;9.372;2023-05-22T06:14:49;16.724902197445044;;;16.687;100.0
15558;BME280;7880;50.110;9.372;2023-05-22T06:19:54;16.694646242592718;;;16.687;100.0
15558;BME280;7880;50.110;9.372;2023-05-22T06:25:00;16.775328812148654;;;16.75;100.0
15558;BME280;7880;50.110;9.372;2023-05-22T06:30:07;16.89635280618095;;;16.812;100.0
15558;BME280;7880;50.110;9.372;2023-05-22T06:35:14;17.017376967851305;;;16.937;100.0
15558;BME280;7880;50.110;9.372;2023-05-22T06:40:16;17.11318788139615;;;17.062;100.0
15558;BME280;7880;50.110;9.372;2023-05-22T06:45:22;17.208998900005827;;;17.187;100.0
15558;BME280;7880;50.110;9.372;2023-05-22T06:50:27;17.319938105443725;;;17.25;100.0
15558;BME280;7880;50.110;9.372;2023-05-22T06:55:32;17.491389881825306;;;17.375;100.0
15558;BME280;7880;50.110;9.372;2023-05-22T07:00:46;17.62754300273955;;;17.5;100.0
15558;BME280;7880;50.110;9.372;2023-05-22T07:05:48;17.77378177634091;;;17.687;100.0
15558;BME280;7880;50.110;9.372;2023-05-22T07:10:49;17.91497806585976;;;17.812;100.0
15558;BME280;7880;50.110;9.372;2023-05-22T07:15:52;18.071302795410155;;;18.0;100.0
15558;BME280;7880;50.110;9.372;2023-05-22T07:20:58;18.172157608065753;;;18.125;100.0
15558;BME280;7880;50.110;9.372;2023-05-22T07:26:03;18.36882482758374;;;18.312;100.0
15558;BME280;7880;50.110;9.372;2023-05-22T07:31:10;18.53019313319237;;;18.5;100.0
15558;BME280;7880;50.110;9.372;2023-05-22T07:36:18;18.681476190366084;;;18.625;100.0
15558;BME280;7880;50.110;9.372;2023-05-22T07:41:24;18.79241726543405;;;18.75;100.0
15558;BME280;7880;50.110;9.372;2023-05-22T07:46:28;18.863016204728048;;;18.812;100.0
15558;BME280;7880;50.110;9.372;2023-05-22T07:51:34;19.110112941474654;;;19.062;100.0
15558;BME280;7880;50.110;9.372;2023-05-22T07:56:41;19.155498132348292;;;19.125;100.0
15558;BME280;7880;50.110;9.372;2023-05-22T08:01:48;19.24626858481788;;;19.25;100.0
15558;BME280;7880;50.110;9.372;2023-05-22T08:06:53;19.276525423262502;;;19.25;100.0
15558;BME280;7880;50.110;9.372;2023-05-22T08:11:56;19.2563541964686;;;19.25;100.0
15558;BME280;7880;50.110;9.372;2023-05-22T08:17:03;19.402595696225763;;;19.375;100.0
15558;BME280;7880;50.110;9.372;2023-05-22T08:22:06;19.40763851092779;;;19.437;100.0
15558;BME280;7880;50.110;9.372;2023-05-22T08:27:12;19.619436991220574;;;19.562;100.0
15558;BME280;7880;50.110;9.372;2023-05-22T08:32:17;19.81106463005417;;;19.75;100.0
15558;BME280;7880;50.110;9.372;2023-05-22T08:37:21;20.032949789526175;;;20.0;100.0
15558;BME280;7880;50.110;9.372;2023-05-22T08:42:38;20.209449750557543;;;20.125;100.0
15558;BME280;7880;50.110;9.372;2023-05-22T08:47:36;20.254835512448334;;;20.187;100.0
15558;BME280;7880;50.110;9.372;2023-05-22T08:52:41;20.305264164420077;;;20.312;100.0
15558;BME280;7880;50.110;9.372;2023-05-22T08:57:41;20.411164428293706;;;20.437;100.0
15558;BME280;7880;50.110;9.372;2023-05-22T09:02:52;20.77929491554969;;;20.687;99.77245026294743
15558;BME280;7880;50.110;9.372;2023-05-22T09:07:54;20.728865990001943;;;20.687;100.0
15558;BME280;7880;50.110;9.372;2023-05-22T09:13:02;20.728865990001943;;;20.687;100.0
15558;BME280;7880;50.110;9.372;2023-05-22T09:18:03;20.935624769702553;;;20.875;100.0
15558;BME280;7880;50.110;9.372;2023-05-22T09:23:14;21.021354163304203;;;20.937;98.61863501039805
15558;BME280;7880;50.110;9.372;2023-05-22T09:28:13;21.717278235784033;;;21.5;99.05058515973022
15558;BME280;7880;50.110;9.372;2023-05-22T09:33:18;21.444959460390965;;;21.437;99.17406079334414
15558;BME280;7880;50.110;9.372;2023-05-22T09:38:27;21.41974480189383;;;21.375;95.61948179823713
15558;BME280;7880;50.110;9.372;2023-05-22T09:43:32;21.752578879916108;;;21.625;95.83934268550657
15558;BME280;7880;50.110;9.372;2023-05-22T09:48:35;21.6567628790217;;;21.687;93.66554633661669
15558;BME280;7880;50.110;9.372;2023-05-22T09:53:41;22.22157450528466;;;22.062;96.38836316920461
15558;BME280;7880;50.110;9.372;2023-05-22T09:58:47;22.36277798228548;;;22.312;93.2051605968444
15558;BME280;7880;50.110;9.372;2023-05-22T10:02:26;22.625013616360956;;;22.5;88.9918377809904
15558;BME280;7880;50.110;9.372;2023-05-22T10:07:31;22.978024366503814;;;22.937;90.23868485769007
15558;BME280;7880;50.110;9.372;2023-05-22T10:12:33;23.26547703074757;;;23.25;92.40578083008106
15558;BME280;7880;50.110;9.372;2023-05-22T10:17:41;22.978024366503814;;;23.187;86.64385985194
15558;BME280;7880;50.110;9.372;2023-05-22T10:22:46;23.09905695198686;;;23.125;82.39301115881976
15558;BME280;7880;50.110;9.372;2023-05-22T10:27:47;23.26043399340124;;;23.25;80.77146773364169
15558;BME280;7880;50.110;9.372;2023-05-22T10:33:01;23.673964022338623;;;23.625;86.45969735066437
15558;BME280;7880;50.110;9.372;2023-05-22T10:38:05;23.835342125460738;;;23.812;84.27718976516556
15558;BME280;7880;50.110;9.372;2023-05-22T10:43:06;24.011849766992963;;;24.0;81.38943217614934
15558;BME280;7880;50.110;9.372;2023-05-22T10:48:08;24.253917969414033;;;24.312;79.8468832063188
15558;BME280;7880;50.110;9.372;2023-05-22T10:53:18;23.96646205369034;;;24.125;74.94282360360371
15558;BME280;7880;50.110;9.372;2023-05-22T10:58:25;24.09758217866183;;;23.875;72.09329742995867
15558;BME280;7880;50.110;9.372;2023-05-22T11:03:25;25.24741324033239;;;25.062;70.85091772826787
15558;BME280;7880;50.110;9.372;2023-05-22T11:14:03;24.26904725432978;;;24.437;63.98134454618007
15558;BME280;7880;50.110;9.372;2023-05-22T11:19:20;25.151593407336623;;;24.75;62.836507034623935
15558;BME280;7880;50.110;9.372;2023-05-22T11:24:18;25.237326937174657;;;25.187;59.15460350989856
15558;BME280;7880;50.110;9.372;2023-05-22T11:29:23;25.449139547959202;;;25.375;60.82041060749906
15558;BME280;7880;50.110;9.372;2023-05-22T11:34:25;25.68616855444852;;;25.687;61.69582160290461
15558;BME280;7880;50.110;9.372;2023-05-22T11:39:31;25.580261897627498;;;25.625;60.46063934083252
15558;BME280;7880;50.110;9.372;2023-05-22T11:44:37;25.86267993436777;;;25.812;60.348510591170815
15558;BME280;7880;50.110;9.372;2023-05-22T11:49:42;25.76181624504388;;;25.625;61.87462636410564
15558;BME280;7880;50.110;9.372;2023-05-22T11:54:50;25.630693622963737;;;25.812;61.25573600818152
15558;BME280;7880;50.110;9.372;2023-05-22T11:59:52;25.257499544654273;;;25.375;62.984148828624306
15558;BME280;7880;50.110;9.372;2023-05-22T12:04:58;24.88430706007057;;;24.937;62.47297012360404
15558;BME280;7880;50.110;9.372;2023-05-22T12:10:04;24.107668350270252;;;24.312;67.82352925890993
15558;BME280;7880;50.110;9.372;2023-05-22T12:15:09;24.072366754733956;;;24.062;70.31010173929239
15558;BME280;7880;50.110;9.372;2023-05-22T12:20:13;24.465728196594863;;;24.187;68.3312141706847
15558;BME280;7880;50.110;9.372;2023-05-22T12:25:32;24.57163350270712;;;24.312;65.04997515080976
15558;BME280;7880;50.110;9.372;2023-05-22T12:30:25;24.75822887814138;;;24.687;68.74259278190621
15558;BME280;7880;50.110;9.372;2023-05-22T12:35:38;24.85404827981838;;;24.75;69.576471233402
15558;BME280;7880;50.110;9.372;2023-05-22T12:40:35;24.677538937167263;;;24.687;64.46234536721701
15558;BME280;7880;50.110;9.372;2023-05-22T12:45:43;24.637193994619885;;;24.625;70.48076655302265
15558;BME280;7880;50.110;9.372;2023-05-22T12:50:48;24.637193994619885;;;24.625;67.95075062183217
15558;BME280;7880;50.110;9.372;2023-05-22T12:55:46;24.67249581833021;;;24.625;65.79680008476713
15558;BME280;7880;50.110;9.372;2023-05-22T13:00:52;24.733013263583416;;;24.687;65.33195380026308
15558;BME280;7880;50.110;9.372;2023-05-22T13:05:56;24.531288609054172;;;24.562;63.40783407540571
15558;BME280;7880;50.110;9.372;2023-05-22T13:11:05;24.54137483072118;;;24.5;66.94302357400026
15558;BME280;7880;50.110;9.372;2023-05-22T13:16:10;24.425383351836352;;;24.375;77.09681174065177
15558;BME280;7880;50.110;9.372;2023-05-22T13:21:15;24.329564420186216;;;24.25;84.48464231453565
15558;BME280;7880;50.110;9.372;2023-05-22T13:26:20;24.15809922577464;;;24.125;83.24953434959404
15558;BME280;7880;50.110;9.372;2023-05-22T13:31:32;24.09253909329418;;;24.0;91.53928373479215
15558;BME280;7880;50.110;9.372;2023-05-22T13:36:30;23.890815917239525;;;23.75;96.25477750782369
15558;BME280;7880;50.110;9.372;2023-05-22T13:41:35;23.74960997106973;;;23.625;97.27597604027093
15558;BME280;7880;50.110;9.372;2023-05-22T13:46:42;23.699179331306368;;;23.562;100.0
15558;BME280;7880;50.110;9.372;2023-05-22T13:51:44;23.53780147964135;;;23.437;97.61955273581087
15558;BME280;7880;50.110;9.372;2023-05-22T13:56:54;23.658834840450435;;;23.375;100.0
15558;BME280;7880;50.110;9.372;2023-05-22T14:01:54;23.643705661181592;;;23.437;100.0
15558;BME280;7880;50.110;9.372;2023-05-22T14:06:59;23.55293064057478;;;23.312;100.0
15558;BME280;7880;50.110;9.372;2023-05-22T14:12:07;23.4419835212233;;;23.25;100.0
15558;BME280;7880;50.110;9.372;2023-05-22T14:17:10;23.4066821946064;;;23.125;100.0
15558;BME280;7880;50.110;9.372;2023-05-22T14:22:14;23.280606144532793;;;23.062;100.0
15558;BME280;7880;50.110;9.372;2023-05-22T14:27:20;23.310864379961277;;;23.062;100.0
15558;BME280;7880;50.110;9.372;2023-05-22T14:32:26;23.416768286470322;;;23.187;100.0
15558;BME280;7880;50.110;9.372;2023-05-22T14:37:30;23.563016749318923;;;23.375;100.0
15558;BME280;7880;50.110;9.372;2023-05-22T14:42:38;23.77482530186535;;;23.562;90.93528838290464
15558;BME280;7880;50.110;9.372;2023-05-22T14:47:41;23.805083708424355;;;23.75;87.60813451680298
15558;BME280;7880;50.110;9.372;2023-05-22T14:52:51;24.026979009999195;;;23.875;84.76732793633636
15558;BME280;7880;50.110;9.372;2023-05-22T14:57:48;23.916031288780506;;;23.812;82.50043081259756
15558;BME280;7880;50.110;9.372;2023-05-22T15:02:54;23.850471337907948;;;23.75;80.41056959964898
15558;BME280;7880;50.110;9.372;2023-05-22T15:08:00;23.648748720646836;;;23.625;83.01484273040063
15558;BME280;7880;50.110;9.372;2023-05-22T15:13:13;23.507543165632523;;;23.437;87.24623918675928
15558;BME280;7880;50.110;9.372;2023-05-22T15:18:12;23.517629269137977;;;23.375;83.504402771885
15558;BME280;7880;50.110;9.372;2023-05-22T15:23:24;23.522672321327263;;;23.437;82.79689015899069
15558;BME280;7880;50.110;9.372;2023-05-22T15:28:22;23.482327911962056;;;23.375;82.86855573578751
15558;BME280;7880;50.110;9.372;2023-05-22T15:33:33;23.31590742021799;;;23.25;90.0783912669859
15558;BME280;7880;50.110;9.372;2023-05-22T15:38:33;23.18983150111162;;;23.062;97.2402197696933
15558;BME280;7880;50.110;9.372;2023-05-22T15:43:35;23.08897089679376;;;23.0;95.4952554193781
15558;BME280;7880;50.110;9.372;2023-05-22T15:48:42;22.897336069314044;;;22.75;91.61853472323656
15558;BME280;7880;50.110;9.372;2023-05-22T15:53:46;22.867077977076406;;;22.75;100.0
15558;BME280;7880;50.110;9.372;2023-05-22T15:58:50;22.781346772634425;;;22.625;100.0
15558;BME280;7880;50.110;9.372;2023-05-22T16:03:55;22.514067675132537;;;22.375;97.6668521005327
15558;BME280;7880;50.110;9.372;2023-05-22T16:09:00;22.38294992619776;;;22.187;97.4240101592668
15558;BME280;7880;50.110;9.372;2023-05-22T16:14:06;22.266961312294008;;;22.0;100.0
15558;BME280;7880;50.110;9.372;2023-05-22T16:19:10;22.075328287505545;;;21.875;100.0
15558;BME280;7880;50.110;9.372;2023-05-22T16:24:17;21.95429711996112;;;21.75;100.0
15558;BME280;7880;50.110;9.372;2023-05-22T16:29:21;21.737450030684705;;;21.5;100.0
15558;BME280;7880;50.110;9.372;2023-05-22T16:34:29;21.576075801864498;;;21.312;100.0
15558;BME280;7880;50.110;9.372;2023-05-22T16:39:34;21.49034586402122;;;21.187;100.0
15558;BME280;7880;50.110;9.372;2023-05-22T16:44:45;21.31888624066487;;;21.062;100.0
15558;BME280;7880;50.110;9.372;2023-05-22T16:49:46;21.09195490354323;;;20.812;100.0
15558;BME280;7880;50.110;9.372;2023-05-22T16:54:56;21.344100870058174;;;20.937;100.0
15558;BME280;7880;50.110;9.372;2023-05-22T16:59:54;20.88519575393293;;;20.75;100.0
15558;BME280;7880;50.110;9.372;2023-05-22T17:05:00;20.713737318012864;;;20.562;100.0
15558;BME280;7880;50.110;9.372;2023-05-22T17:10:06;20.723823099047877;;;20.625;100.0
15558;BME280;7880;50.110;9.372;2023-05-22T17:15:11;20.638093997357647;;;20.437;100.0
15558;BME280;7880;50.110;9.372;2023-05-22T17:20:17;20.416207301203393;;;20.25;100.0
15558;BME280;7880;50.110;9.372;2023-05-22T17:25:22;20.436378795752535;;;20.187;100.0
15558;BME280;7880;50.110;9.372;2023-05-22T17:30:28;20.23466405980871;;;20.0;100.0
15558;BME280;7880;50.110;9.372;2023-05-22T17:35:38;19.831235984904925;;;19.75;100.0
15558;BME280;7880;50.110;9.372;2023-05-22T17:40:39;20.027906938735395;;;19.75;100.0
15558;BME280;7880;50.110;9.372;2023-05-22T17:45:49;20.113635441759833;;;19.75;100.0
15558;BME280;7880;50.110;9.372;2023-05-22T17:50:49;20.083378313441063;;;19.812;100.0
15558;BME280;7880;50.110;9.372;2023-05-22T17:56:06;20.027906938735395;;;19.75;100.0
15558;BME280;7880;50.110;9.372;2023-05-22T18:01:12;20.00269268914708;;;19.812;100.0
15558;BME280;7880;50.110;9.372;2023-05-22T18:06:03;19.89679292032961;;;19.687;100.0
15558;BME280;7880;50.110;9.372;2023-05-22T18:11:16;19.00421425444656;;;19.0;100.0
15558;BME280;7880;50.110;9.372;2023-05-22T18:16:12;19.15045533219818;;;18.937;100.0
15558;BME280;7880;50.110;9.372;2023-05-22T18:21:17;18.696604510489852;;;18.562;100.0
15558;BME280;7880;50.110;9.372;2023-05-22T18:26:24;18.273012537136673;;;18.25;100.0
15558;BME280;7880;50.110;9.372;2023-05-22T18:31:30;18.661305100942265;;;18.312;100.0
15558;BME280;7880;50.110;9.372;2023-05-22T18:36:36;18.600791860610478;;;18.437;100.0
15558;BME280;7880;50.110;9.372;2023-05-22T18:41:43;18.267969787918265;;;18.187;100.0
15558;BME280;7880;50.110;9.372;2023-05-22T18:46:47;17.960362635948695;;;17.875;100.0
15558;BME280;7880;50.110;9.372;2023-05-22T18:51:52;17.723354585381458;;;17.625;100.0
15558;BME280;7880;50.110;9.372;2023-05-22T18:56:56;17.54181693890714;;;17.437;100.0
15558;BME280;7880;50.110;9.372;2023-05-22T19:02:07;17.461133661546047;;;17.312;100.0
15558;BME280;7880;50.110;9.372;2023-05-22T19:07:07;17.188828150514745;;;17.062;100.0
15558;BME280;7880;50.110;9.372;2023-05-22T19:12:13;17.09805983543047;;;16.937;100.0
15558;BME280;7880;50.110;9.372;2023-05-22T19:17:20;17.19891352467821;;;16.937;100.0
15558;BME280;7880;50.110;9.372;2023-05-22T19:22:26;16.90643814658397;;;16.812;100.0
15558;BME280;7880;50.110;9.372;2023-05-22T19:27:44;16.73498751805746;;;16.562;100.0
15558;BME280;7880;50.110;9.372;2023-05-22T19:32:38;16.729944857605734;;;16.5;100.0
15558;BME280;7880;50.110;9.372;2023-05-22T19:37:42;16.67951826909557;;;16.437;100.0
15558;BME280;7880;50.110;9.372;2023-05-22T19:42:52;16.775328812148654;;;16.562;100.0
15558;BME280;7880;50.110;9.372;2023-05-22T19:47:55;16.790456802234985;;;16.562;100.0
15558;BME280;7880;50.110;9.372;2023-05-22T19:53:04;17.239255032973595;;;16.875;100.0
15558;BME280;7880;50.110;9.372;2023-05-22T19:58:06;17.350194276828553;;;17.0;100.0
15558;BME280;7880;50.110;9.372;2023-05-22T20:03:12;17.335066189826467;;;17.0;100.0
15558;BME280;7880;50.110;9.372;2023-05-22T20:08:21;17.087974472908535;;;16.687;100.0
15558;BME280;7880;50.110;9.372;2023-05-22T20:13:13;16.941736847162247;;;16.5;100.0
15558;BME280;7880;50.110;9.372;2023-05-22T20:18:13;16.987120911717646;;;16.562;100.0
15558;BME280;7880;50.110;9.372;2023-05-22T20:23:17;17.19387083745096;;;16.812;100.0
15558;BME280;7880;50.110;9.372;2023-05-22T20:28:23;17.239255032973595;;;16.875;100.0
15558;BME280;7880;50.110;9.372;2023-05-22T20:33:29;17.188828150514745;;;16.875;100.0
15558;BME280;7880;50.110;9.372;2023-05-22T20:38:35;17.188828150514745;;;16.875;100.0
15558;BME280;7880;50.110;9.372;2023-05-22T20:43:42;17.148486665502425;;;16.812;100.0
15558;BME280;7880;50.110;9.372;2023-05-22T20:48:47;17.062761071696876;;;16.75;100.0
15558;BME280;7880;50.110;9.372;2023-05-22T20:53:53;16.99720626259805;;;16.687;100.0
15558;BME280;7880;50.110;9.372;2023-05-22T20:58:59;16.840883454773575;;;16.562;100.0
15558;BME280;7880;50.110;9.372;2023-05-22T21:04:06;16.795499466179173;;;16.5;100.0
15558;BME280;7880;50.110;9.372;2023-05-22T21:09:12;16.699688901007175;;;16.375;100.0
15558;BME280;7880;50.110;9.372;2023-05-22T21:14:18;16.543366625491764;;;16.25;100.0
15558;BME280;7880;50.110;9.372;2023-05-22T21:19:24;16.42234312040382;;;16.125;100.0
15558;BME280;7880;50.110;9.372;2023-05-22T21:24:31;16.139955593791093;;;15.937;100.0
15558;BME280;7880;50.110;9.372;2023-05-22T21:29:37;16.351746153185378;;;16.062;100.0
15558;BME280;7880;50.110;9.372;2023-05-22T21:34:44;16.402172552520643;;;16.125;100.0
15558;BME280;7880;50.110;9.372;2023-05-22T21:39:51;16.487897498183884;;;16.125;100.0
15558;BME280;7880;50.110;9.372;2023-05-22T21:44:57;16.402172552520643;;;16.187;100.0
15558;BME280;7880;50.110;9.372;2023-05-22T21:50:04;16.029017886618384;;;15.875;100.0
15558;BME280;7880;50.110;9.372;2023-05-22T21:55:14;15.797057681350271;;;15.5;100.0
15558;BME280;7880;50.110;9.372;2023-05-22T22:00:17;16.029017886618384;;;15.625;100.0
15558;BME280;7880;50.110;9.372;2023-05-22T22:05:21;16.230722913524367;;;15.812;100.0
15558;BME280;7880;50.110;9.372;2023-05-22T22:10:27;16.029017886618384;;;15.812;100.0
15558;BME280;7880;50.110;9.372;2023-05-22T22:15:33;15.923122933902778;;;15.75;100.0
15558;BME280;7880;50.110;9.372;2023-05-22T22:20:55;15.877739422029117;;;15.437;100.0
15558;BME280;7880;50.110;9.372;2023-05-22T22:25:50;15.857568979874486;;;15.562;100.0
15558;BME280;7880;50.110;9.372;2023-05-22T22:30:54;15.88278203329537;;;15.562;100.0
15558;BME280;7880;50.110;9.372;2023-05-22T22:36:02;15.867654200369724;;;15.625;100.0
15558;BME280;7880;50.110;9.372;2023-05-22T22:41:10;15.635694423509994;;;15.375;100.0
15558;BME280;7880;50.110;9.372;2023-05-22T22:46:12;15.716376015177229;;;15.437;100.0
15558;BME280;7880;50.110;9.372;2023-05-22T22:51:16;15.580225872457959;;;15.312;100.0
15558;BME280;7880;50.110;9.372;2023-05-22T22:56:23;15.423905599868158;;;15.125;100.0
15558;BME280;7880;50.110;9.372;2023-05-22T23:01:33;15.52979994751513;;;15.187;100.0
15558;BME280;7880;50.110;9.372;2023-05-22T23:06:33;15.575183278654004;;;15.25;100.0
15558;BME280;7880;50.110;9.372;2023-05-22T23:11:39;15.454161114670569;;;15.125;100.0